sensor_id;sensor_type;location;lat;lon;timestamp;P1;durP1;ratioP1;P2;durP2;ratioP2
15553;SDS011;7878;44.632;10.942;2023-04-19T00:01:30;7.17;;;6.47;;
15553;SDS011;7878;44.632;10.942;2023-04-19T00:03:58;7.27;;;6.07;;
15553;SDS011;7878;44.632;10.942;2023-04-19T00:06:24;13.77;;;6.60;;
15553;SDS011;7878;44.632;10.942;2023-04-19T00:08:50;10.00;;;6.70;;
15553;SDS011;7878;44.632;10.942;2023-04-19T00:11:16;7.57;;;6.77;;
15553;SDS011;7878;44.632;10.942;2023-04-19T00:13:41;9.13;;;6.23;;
15553;SDS011;7878;44.632;10.942;2023-04-19T00:16:07;8.53;;;6.87;;
15553;SDS011;7878;44.632;10.942;2023-04-19T00:18:33;8.83;;;7.07;;
15553;SDS011;7878;44.632;10.942;2023-04-19T00:20:58;8.20;;;6.30;;
15553;SDS011;7878;44.632;10.942;2023-04-19T00:23:24;14.53;;;6.43;;
15553;SDS011;7878;44.632;10.942;2023-04-19T00:25:50;7.40;;;6.37;;
15553;SDS011;7878;44.632;10.942;2023-04-19T00:28:16;7.13;;;6.43;;
15553;SDS011;7878;44.632;10.942;2023-04-19T00:30:41;8.73;;;6.03;;
15553;SDS011;7878;44.632;10.942;2023-04-19T00:33:07;7.70;;;6.20;;
15553;SDS011;7878;44.632;10.942;2023-04-19T00:35:39;8.43;;;6.33;;
15553;SDS011;7878;44.632;10.942;2023-04-19T00:38:06;11.33;;;7.37;;
15553;SDS011;7878;44.632;10.942;2023-04-19T00:40:31;13.20;;;8.90;;
15553;SDS011;7878;44.632;10.942;2023-04-19T00:42:57;9.33;;;7.27;;
15553;SDS011;7878;44.632;10.942;2023-04-19T00:45:24;8.83;;;6.77;;
15553;SDS011;7878;44.632;10.942;2023-04-19T00:47:50;7.00;;;6.13;;
15553;SDS011;7878;44.632;10.942;2023-04-19T00:50:16;6.60;;;5.90;;
15553;SDS011;7878;44.632;10.942;2023-04-19T00:52:42;8.73;;;6.53;;
15553;SDS011;7878;44.632;10.942;2023-04-19T00:55:09;9.17;;;5.90;;
15553;SDS011;7878;44.632;10.942;2023-04-19T00:57:35;6.13;;;5.50;;
15553;SDS011;7878;44.632;10.942;2023-04-19T01:00:02;7.93;;;6.67;;
15553;SDS011;7878;44.632;10.942;2023-04-19T01:02:30;6.13;;;5.53;;
15553;SDS011;7878;44.632;10.942;2023-04-19T01:04:56;8.20;;;5.80;;
15553;SDS011;7878;44.632;10.942;2023-04-19T01:07:22;8.10;;;5.40;;
15553;SDS011;7878;44.632;10.942;2023-04-19T01:09:48;6.63;;;5.67;;
15553;SDS011;7878;44.632;10.942;2023-04-19T01:12:13;7.47;;;5.60;;
15553;SDS011;7878;44.632;10.942;2023-04-19T01:14:39;8.43;;;5.67;;
15553;SDS011;7878;44.632;10.942;2023-04-19T01:17:06;8.67;;;6.30;;
15553;SDS011;7878;44.632;10.942;2023-04-19T01:19:32;6.50;;;5.80;;
15553;SDS011;7878;44.632;10.942;2023-04-19T01:21:59;6.47;;;5.33;;
15553;SDS011;7878;44.632;10.942;2023-04-19T01:24:27;6.93;;;5.23;;
15553;SDS011;7878;44.632;10.942;2023-04-19T01:26:52;7.43;;;5.53;;
15553;SDS011;7878;44.632;10.942;2023-04-19T01:29:18;5.77;;;4.87;;
15553;SDS011;7878;44.632;10.942;2023-04-19T01:31:46;6.03;;;5.43;;
15553;SDS011;7878;44.632;10.942;2023-04-19T01:34:15;9.50;;;6.53;;
15553;SDS011;7878;44.632;10.942;2023-04-19T01:36:41;7.43;;;5.93;;
15553;SDS011;7878;44.632;10.942;2023-04-19T01:39:06;6.80;;;6.00;;
15553;SDS011;7878;44.632;10.942;2023-04-19T01:41:32;7.70;;;6.03;;
15553;SDS011;7878;44.632;10.942;2023-04-19T01:43:58;8.80;;;6.77;;
15553;SDS011;7878;44.632;10.942;2023-04-19T01:46:24;8.67;;;6.00;;
15553;SDS011;7878;44.632;10.942;2023-04-19T01:48:50;10.30;;;7.47;;
15553;SDS011;7878;44.632;10.942;2023-04-19T01:51:16;8.97;;;6.70;;
15553;SDS011;7878;44.632;10.942;2023-04-19T01:53:42;11.43;;;5.93;;
15553;SDS011;7878;44.632;10.942;2023-04-19T01:56:07;7.13;;;6.10;;
15553;SDS011;7878;44.632;10.942;2023-04-19T01:58:33;8.30;;;5.83;;
15553;SDS011;7878;44.632;10.942;2023-04-19T02:00:58;9.20;;;5.83;;
15553;SDS011;7878;44.632;10.942;2023-04-19T02:03:24;6.70;;;5.83;;
15553;SDS011;7878;44.632;10.942;2023-04-19T02:05:50;8.10;;;5.60;;
15553;SDS011;7878;44.632;10.942;2023-04-19T02:08:16;6.23;;;5.40;;
15553;SDS011;7878;44.632;10.942;2023-04-19T02:10:41;6.93;;;4.83;;
15553;SDS011;7878;44.632;10.942;2023-04-19T02:13:07;6.83;;;5.83;;
15553;SDS011;7878;44.632;10.942;2023-04-19T02:15:35;10.00;;;5.47;;
15553;SDS011;7878;44.632;10.942;2023-04-19T02:18:01;6.27;;;5.27;;
15553;SDS011;7878;44.632;10.942;2023-04-19T02:20:30;7.10;;;6.27;;
15553;SDS011;7878;44.632;10.942;2023-04-19T02:22:56;7.10;;;5.40;;
15553;SDS011;7878;44.632;10.942;2023-04-19T02:25:22;9.43;;;6.23;;
15553;SDS011;7878;44.632;10.942;2023-04-19T02:27:47;6.40;;;5.30;;
15553;SDS011;7878;44.632;10.942;2023-04-19T02:30:13;7.83;;;5.77;;
15553;SDS011;7878;44.632;10.942;2023-04-19T02:32:39;6.03;;;5.33;;
15553;SDS011;7878;44.632;10.942;2023-04-19T02:35:05;8.50;;;6.03;;
15553;SDS011;7878;44.632;10.942;2023-04-19T02:37:31;8.03;;;5.03;;
15553;SDS011;7878;44.632;10.942;2023-04-19T02:39:57;7.37;;;5.97;;
15553;SDS011;7878;44.632;10.942;2023-04-19T02:42:22;8.13;;;7.17;;
15553;SDS011;7878;44.632;10.942;2023-04-19T02:44:48;7.70;;;5.73;;
15553;SDS011;7878;44.632;10.942;2023-04-19T02:47:13;10.47;;;6.07;;
15553;SDS011;7878;44.632;10.942;2023-04-19T02:49:39;6.90;;;6.20;;
15553;SDS011;7878;44.632;10.942;2023-04-19T02:52:06;7.03;;;6.33;;
15553;SDS011;7878;44.632;10.942;2023-04-19T02:54:32;8.87;;;7.00;;
15553;SDS011;7878;44.632;10.942;2023-04-19T02:56:58;7.93;;;6.63;;
15553;SDS011;7878;44.632;10.942;2023-04-19T02:59:25;7.57;;;6.60;;
15553;SDS011;7878;44.632;10.942;2023-04-19T03:01:50;9.60;;;6.60;;
15553;SDS011;7878;44.632;10.942;2023-04-19T03:04:16;8.40;;;6.67;;
15553;SDS011;7878;44.632;10.942;2023-04-19T03:06:42;9.97;;;7.50;;
15553;SDS011;7878;44.632;10.942;2023-04-19T03:09:08;11.17;;;7.60;;
15553;SDS011;7878;44.632;10.942;2023-04-19T03:11:34;7.97;;;7.17;;
15553;SDS011;7878;44.632;10.942;2023-04-19T03:14:01;9.17;;;6.90;;
15553;SDS011;7878;44.632;10.942;2023-04-19T03:16:26;8.77;;;7.47;;
15553;SDS011;7878;44.632;10.942;2023-04-19T03:18:54;9.07;;;7.67;;
15553;SDS011;7878;44.632;10.942;2023-04-19T03:21:20;10.40;;;7.63;;
15553;SDS011;7878;44.632;10.942;2023-04-19T03:23:45;9.47;;;7.73;;
15553;SDS011;7878;44.632;10.942;2023-04-19T03:26:11;9.27;;;7.23;;
15553;SDS011;7878;44.632;10.942;2023-04-19T03:28:37;26.20;;;7.97;;
15553;SDS011;7878;44.632;10.942;2023-04-19T03:31:02;23.70;;;7.97;;
15553;SDS011;7878;44.632;10.942;2023-04-19T03:33:28;20.63;;;8.10;;
15553;SDS011;7878;44.632;10.942;2023-04-19T03:35:54;22.93;;;7.97;;
15553;SDS011;7878;44.632;10.942;2023-04-19T03:38:19;11.73;;;7.43;;
15553;SDS011;7878;44.632;10.942;2023-04-19T03:40:46;10.83;;;8.10;;
15553;SDS011;7878;44.632;10.942;2023-04-19T03:43:12;9.77;;;7.07;;
15553;SDS011;7878;44.632;10.942;2023-04-19T03:45:37;15.73;;;6.87;;
15553;SDS011;7878;44.632;10.942;2023-04-19T03:48:03;14.20;;;7.83;;
15553;SDS011;7878;44.632;10.942;2023-04-19T03:50:29;12.23;;;6.77;;
15553;SDS011;7878;44.632;10.942;2023-04-19T03:52:55;14.20;;;6.67;;
15553;SDS011;7878;44.632;10.942;2023-04-19T03:55:20;9.80;;;6.03;;
15553;SDS011;7878;44.632;10.942;2023-04-19T03:57:46;9.10;;;6.03;;
15553;SDS011;7878;44.632;10.942;2023-04-19T04:00:12;9.77;;;5.80;;
15553;SDS011;7878;44.632;10.942;2023-04-19T04:02:38;6.40;;;5.60;;
15553;SDS011;7878;44.632;10.942;2023-04-19T04:05:04;7.07;;;5.37;;
15553;SDS011;7878;44.632;10.942;2023-04-19T04:07:31;10.07;;;5.47;;
15553;SDS011;7878;44.632;10.942;2023-04-19T04:09:56;6.97;;;5.43;;
15553;SDS011;7878;44.632;10.942;2023-04-19T04:12:22;52.13;;;9.33;;
15553;SDS011;7878;44.632;10.942;2023-04-19T04:14:48;13.17;;;6.13;;
15553;SDS011;7878;44.632;10.942;2023-04-19T04:17:13;28.87;;;6.57;;
15553;SDS011;7878;44.632;10.942;2023-04-19T04:19:39;37.17;;;9.00;;
15553;SDS011;7878;44.632;10.942;2023-04-19T04:22:05;26.97;;;6.97;;
15553;SDS011;7878;44.632;10.942;2023-04-19T04:24:36;15.10;;;6.63;;
15553;SDS011;7878;44.632;10.942;2023-04-19T04:27:08;14.03;;;5.83;;
15553;SDS011;7878;44.632;10.942;2023-04-19T04:29:35;9.33;;;5.63;;
15553;SDS011;7878;44.632;10.942;2023-04-19T04:32:01;10.00;;;5.37;;
15553;SDS011;7878;44.632;10.942;2023-04-19T04:34:32;20.10;;;6.90;;
15553;SDS011;7878;44.632;10.942;2023-04-19T04:36:59;9.90;;;6.00;;
15553;SDS011;7878;44.632;10.942;2023-04-19T04:39:25;37.70;;;9.07;;
15553;SDS011;7878;44.632;10.942;2023-04-19T04:41:51;14.83;;;7.57;;
15553;SDS011;7878;44.632;10.942;2023-04-19T04:44:17;13.37;;;6.40;;
15553;SDS011;7878;44.632;10.942;2023-04-19T04:46:44;13.90;;;6.97;;
15553;SDS011;7878;44.632;10.942;2023-04-19T04:49:10;9.60;;;6.27;;
15553;SDS011;7878;44.632;10.942;2023-04-19T04:51:36;15.10;;;7.67;;
15553;SDS011;7878;44.632;10.942;2023-04-19T04:54:02;13.80;;;6.87;;
15553;SDS011;7878;44.632;10.942;2023-04-19T04:56:29;11.47;;;6.87;;
15553;SDS011;7878;44.632;10.942;2023-04-19T04:58:55;12.63;;;7.37;;
15553;SDS011;7878;44.632;10.942;2023-04-19T05:01:21;16.00;;;8.40;;
15553;SDS011;7878;44.632;10.942;2023-04-19T05:03:48;13.30;;;7.40;;
15553;SDS011;7878;44.632;10.942;2023-04-19T05:06:13;14.93;;;7.93;;
15553;SDS011;7878;44.632;10.942;2023-04-19T05:08:39;21.90;;;7.60;;
15553;SDS011;7878;44.632;10.942;2023-04-19T05:11:05;14.30;;;8.27;;
15553;SDS011;7878;44.632;10.942;2023-04-19T05:13:31;26.00;;;8.73;;
15553;SDS011;7878;44.632;10.942;2023-04-19T05:15:56;27.07;;;8.20;;
15553;SDS011;7878;44.632;10.942;2023-04-19T05:18:22;32.27;;;8.33;;
15553;SDS011;7878;44.632;10.942;2023-04-19T05:20:48;29.13;;;8.23;;
15553;SDS011;7878;44.632;10.942;2023-04-19T05:23:13;19.63;;;7.30;;
15553;SDS011;7878;44.632;10.942;2023-04-19T05:25:39;12.77;;;7.37;;
15553;SDS011;7878;44.632;10.942;2023-04-19T05:28:05;24.60;;;6.90;;
15553;SDS011;7878;44.632;10.942;2023-04-19T05:30:31;16.03;;;7.20;;
15553;SDS011;7878;44.632;10.942;2023-04-19T05:32:56;10.83;;;6.90;;
15553;SDS011;7878;44.632;10.942;2023-04-19T05:35:22;20.57;;;7.90;;
15553;SDS011;7878;44.632;10.942;2023-04-19T05:37:48;14.97;;;6.87;;
15553;SDS011;7878;44.632;10.942;2023-04-19T05:40:14;24.93;;;7.70;;
15553;SDS011;7878;44.632;10.942;2023-04-19T05:42:40;11.53;;;6.50;;
15553;SDS011;7878;44.632;10.942;2023-04-19T05:45:05;16.17;;;6.67;;
15553;SDS011;7878;44.632;10.942;2023-04-19T05:47:32;15.03;;;6.90;;
15553;SDS011;7878;44.632;10.942;2023-04-19T05:49:57;15.70;;;6.63;;
15553;SDS011;7878;44.632;10.942;2023-04-19T05:52:23;13.30;;;6.90;;
15553;SDS011;7878;44.632;10.942;2023-04-19T05:54:49;20.20;;;8.37;;
15553;SDS011;7878;44.632;10.942;2023-04-19T05:57:15;16.27;;;6.80;;
15553;SDS011;7878;44.632;10.942;2023-04-19T05:59:40;9.50;;;6.30;;
15553;SDS011;7878;44.632;10.942;2023-04-19T06:02:06;19.80;;;7.07;;
15553;SDS011;7878;44.632;10.942;2023-04-19T06:04:32;16.60;;;7.63;;
15553;SDS011;7878;44.632;10.942;2023-04-19T06:06:57;16.47;;;7.77;;
15553;SDS011;7878;44.632;10.942;2023-04-19T06:09:23;35.50;;;8.70;;
15553;SDS011;7878;44.632;10.942;2023-04-19T06:11:49;18.20;;;8.23;;
15553;SDS011;7878;44.632;10.942;2023-04-19T06:14:14;12.83;;;8.17;;
15553;SDS011;7878;44.632;10.942;2023-04-19T06:16:40;14.80;;;8.60;;
15553;SDS011;7878;44.632;10.942;2023-04-19T06:19:06;16.43;;;8.37;;
15553;SDS011;7878;44.632;10.942;2023-04-19T06:21:32;21.70;;;8.73;;
15553;SDS011;7878;44.632;10.942;2023-04-19T06:23:58;12.53;;;7.97;;
15553;SDS011;7878;44.632;10.942;2023-04-19T06:26:24;26.93;;;9.20;;
15553;SDS011;7878;44.632;10.942;2023-04-19T06:28:50;16.17;;;8.07;;
15553;SDS011;7878;44.632;10.942;2023-04-19T06:31:15;13.93;;;8.00;;
15553;SDS011;7878;44.632;10.942;2023-04-19T06:33:41;14.00;;;7.93;;
15553;SDS011;7878;44.632;10.942;2023-04-19T06:36:07;12.37;;;8.43;;
15553;SDS011;7878;44.632;10.942;2023-04-19T06:38:34;10.60;;;7.73;;
15553;SDS011;7878;44.632;10.942;2023-04-19T06:41:02;14.93;;;8.73;;
15553;SDS011;7878;44.632;10.942;2023-04-19T06:43:28;16.57;;;8.70;;
15553;SDS011;7878;44.632;10.942;2023-04-19T06:45:59;17.30;;;8.60;;
15553;SDS011;7878;44.632;10.942;2023-04-19T06:48:26;15.67;;;8.83;;
15553;SDS011;7878;44.632;10.942;2023-04-19T06:50:52;15.43;;;8.40;;
15553;SDS011;7878;44.632;10.942;2023-04-19T06:53:18;14.30;;;8.43;;
15553;SDS011;7878;44.632;10.942;2023-04-19T06:55:45;12.83;;;8.63;;
15553;SDS011;7878;44.632;10.942;2023-04-19T06:58:11;15.27;;;9.00;;
15553;SDS011;7878;44.632;10.942;2023-04-19T07:00:36;12.93;;;8.57;;
15553;SDS011;7878;44.632;10.942;2023-04-19T07:03:02;13.83;;;8.87;;
15553;SDS011;7878;44.632;10.942;2023-04-19T07:05:29;15.30;;;8.13;;
15553;SDS011;7878;44.632;10.942;2023-04-19T07:07:55;17.20;;;8.10;;
15553;SDS011;7878;44.632;10.942;2023-04-19T07:10:21;15.63;;;7.93;;
15553;SDS011;7878;44.632;10.942;2023-04-19T07:12:47;20.33;;;8.77;;
15553;SDS011;7878;44.632;10.942;2023-04-19T07:15:12;14.82;;;8.45;;
15553;SDS011;7878;44.632;10.942;2023-04-19T07:17:38;17.05;;;7.85;;
15553;SDS011;7878;44.632;10.942;2023-04-19T07:20:05;14.90;;;9.00;;
15553;SDS011;7878;44.632;10.942;2023-04-19T07:22:31;13.98;;;8.55;;
15553;SDS011;7878;44.632;10.942;2023-04-19T07:24:57;12.57;;;8.32;;
15553;SDS011;7878;44.632;10.942;2023-04-19T07:27:23;16.00;;;9.48;;
15553;SDS011;7878;44.632;10.942;2023-04-19T07:29:49;17.15;;;9.35;;
15553;SDS011;7878;44.632;10.942;2023-04-19T07:32:16;12.32;;;8.70;;
15553;SDS011;7878;44.632;10.942;2023-04-19T07:34:41;11.77;;;9.18;;
15553;SDS011;7878;44.632;10.942;2023-04-19T07:37:07;12.40;;;9.80;;
15553;SDS011;7878;44.632;10.942;2023-04-19T07:39:33;19.08;;;9.25;;
15553;SDS011;7878;44.632;10.942;2023-04-19T07:41:59;13.32;;;9.18;;
15553;SDS011;7878;44.632;10.942;2023-04-19T07:44:25;20.02;;;10.30;;
15553;SDS011;7878;44.632;10.942;2023-04-19T07:46:51;12.98;;;9.38;;
15553;SDS011;7878;44.632;10.942;2023-04-19T07:49:17;14.75;;;9.10;;
15553;SDS011;7878;44.632;10.942;2023-04-19T07:51:43;28.92;;;11.23;;
15553;SDS011;7878;44.632;10.942;2023-04-19T07:54:09;13.48;;;9.95;;
15553;SDS011;7878;44.632;10.942;2023-04-19T07:56:35;13.15;;;9.25;;
15553;SDS011;7878;44.632;10.942;2023-04-19T07:59:00;12.88;;;8.82;;
15553;SDS011;7878;44.632;10.942;2023-04-19T08:01:27;10.73;;;7.20;;
15553;SDS011;7878;44.632;10.942;2023-04-19T08:03:54;7.55;;;6.05;;
15553;SDS011;7878;44.632;10.942;2023-04-19T08:06:19;7.55;;;6.10;;
15553;SDS011;7878;44.632;10.942;2023-04-19T08:08:47;10.50;;;7.35;;
15553;SDS011;7878;44.632;10.942;2023-04-19T08:11:13;10.98;;;7.97;;
15553;SDS011;7878;44.632;10.942;2023-04-19T08:13:39;8.77;;;7.25;;
15553;SDS011;7878;44.632;10.942;2023-04-19T08:16:05;8.32;;;5.90;;
15553;SDS011;7878;44.632;10.942;2023-04-19T08:18:32;10.27;;;6.57;;
15553;SDS011;7878;44.632;10.942;2023-04-19T08:20:58;9.18;;;6.45;;
15553;SDS011;7878;44.632;10.942;2023-04-19T08:23:24;13.25;;;6.95;;
15553;SDS011;7878;44.632;10.942;2023-04-19T08:25:50;9.93;;;6.70;;
15553;SDS011;7878;44.632;10.942;2023-04-19T08:28:16;11.07;;;5.88;;
15553;SDS011;7878;44.632;10.942;2023-04-19T08:30:42;7.20;;;5.35;;
15553;SDS011;7878;44.632;10.942;2023-04-19T08:33:08;5.57;;;5.00;;
15553;SDS011;7878;44.632;10.942;2023-04-19T08:35:34;6.38;;;5.55;;
15553;SDS011;7878;44.632;10.942;2023-04-19T08:38:01;8.43;;;5.43;;
15553;SDS011;7878;44.632;10.942;2023-04-19T08:40:31;7.57;;;5.15;;
15553;SDS011;7878;44.632;10.942;2023-04-19T08:42:57;6.07;;;5.47;;
15553;SDS011;7878;44.632;10.942;2023-04-19T08:45:26;7.35;;;4.97;;
15553;SDS011;7878;44.632;10.942;2023-04-19T08:47:52;7.25;;;5.22;;
15553;SDS011;7878;44.632;10.942;2023-04-19T08:50:19;8.85;;;6.05;;
15553;SDS011;7878;44.632;10.942;2023-04-19T08:52:48;6.60;;;5.88;;
15553;SDS011;7878;44.632;10.942;2023-04-19T08:55:14;8.88;;;5.45;;
15553;SDS011;7878;44.632;10.942;2023-04-19T08:57:40;6.18;;;5.15;;
15553;SDS011;7878;44.632;10.942;2023-04-19T09:00:06;6.45;;;5.55;;
15553;SDS011;7878;44.632;10.942;2023-04-19T09:02:48;7.43;;;5.93;;
15553;SDS011;7878;44.632;10.942;2023-04-19T09:05:15;8.10;;;5.10;;
15553;SDS011;7878;44.632;10.942;2023-04-19T09:07:42;7.78;;;4.72;;
15553;SDS011;7878;44.632;10.942;2023-04-19T09:10:12;7.35;;;4.38;;
15553;SDS011;7878;44.632;10.942;2023-04-19T09:12:40;6.30;;;4.75;;
15553;SDS011;7878;44.632;10.942;2023-04-19T09:15:06;6.05;;;4.88;;
15553;SDS011;7878;44.632;10.942;2023-04-19T09:17:34;7.20;;;5.05;;
15553;SDS011;7878;44.632;10.942;2023-04-19T09:20:00;4.63;;;4.15;;
15553;SDS011;7878;44.632;10.942;2023-04-19T09:22:28;5.32;;;3.95;;
15553;SDS011;7878;44.632;10.942;2023-04-19T09:24:54;4.75;;;4.07;;
15553;SDS011;7878;44.632;10.942;2023-04-19T09:27:33;9.95;;;4.30;;
15553;SDS011;7878;44.632;10.942;2023-04-19T09:30:00;4.35;;;3.90;;
15553;SDS011;7878;44.632;10.942;2023-04-19T09:32:27;6.50;;;4.78;;
15553;SDS011;7878;44.632;10.942;2023-04-19T09:35:08;4.20;;;3.72;;
15553;SDS011;7878;44.632;10.942;2023-04-19T09:37:34;6.47;;;4.15;;
15553;SDS011;7878;44.632;10.942;2023-04-19T09:40:00;4.30;;;3.65;;
15553;SDS011;7878;44.632;10.942;2023-04-19T09:42:45;8.63;;;3.97;;
15553;SDS011;7878;44.632;10.942;2023-04-19T09:45:10;4.32;;;3.92;;
15553;SDS011;7878;44.632;10.942;2023-04-19T09:47:36;7.20;;;4.07;;
15553;SDS011;7878;44.632;10.942;2023-04-19T09:50:06;4.95;;;3.88;;
15553;SDS011;7878;44.632;10.942;2023-04-19T09:52:36;6.32;;;3.10;;
15553;SDS011;7878;44.632;10.942;2023-04-19T09:55:02;3.55;;;3.17;;
15553;SDS011;7878;44.632;10.942;2023-04-19T09:57:32;4.28;;;3.35;;
15553;SDS011;7878;44.632;10.942;2023-04-19T09:59:59;10.77;;;3.75;;
15553;SDS011;7878;44.632;10.942;2023-04-19T10:02:29;3.63;;;3.08;;
15553;SDS011;7878;44.632;10.942;2023-04-19T10:04:59;4.97;;;3.17;;
15553;SDS011;7878;44.632;10.942;2023-04-19T10:07:25;4.22;;;3.10;;
15553;SDS011;7878;44.632;10.942;2023-04-19T10:09:53;2.35;;;1.90;;
15553;SDS011;7878;44.632;10.942;2023-04-19T10:12:24;6.38;;;3.25;;
15553;SDS011;7878;44.632;10.942;2023-04-19T10:14:51;7.43;;;4.35;;
15553;SDS011;7878;44.632;10.942;2023-04-19T10:17:24;5.20;;;2.72;;
15553;SDS011;7878;44.632;10.942;2023-04-19T10:19:56;3.33;;;2.47;;
15553;SDS011;7878;44.632;10.942;2023-04-19T10:22:30;2.50;;;2.30;;
15553;SDS011;7878;44.632;10.942;2023-04-19T10:25:11;2.55;;;2.35;;
15553;SDS011;7878;44.632;10.942;2023-04-19T10:27:39;2.97;;;2.50;;
15553;SDS011;7878;44.632;10.942;2023-04-19T10:30:19;5.47;;;2.30;;
15553;SDS011;7878;44.632;10.942;2023-04-19T10:32:50;4.95;;;2.45;;
15553;SDS011;7878;44.632;10.942;2023-04-19T10:43:31;2.72;;;2.47;;
15553;SDS011;7878;44.632;10.942;2023-04-19T10:46:05;3.60;;;3.03;;
15553;SDS011;7878;44.632;10.942;2023-04-19T10:48:31;2.95;;;2.47;;
15553;SDS011;7878;44.632;10.942;2023-04-19T10:56:57;13.43;;;8.95;;
15553;SDS011;7878;44.632;10.942;2023-04-19T10:59:28;8.25;;;6.57;;
15553;SDS011;7878;44.632;10.942;2023-04-19T11:01:55;8.50;;;6.70;;
15553;SDS011;7878;44.632;10.942;2023-04-19T11:09:37;6.40;;;3.47;;
15553;SDS011;7878;44.632;10.942;2023-04-19T11:12:12;4.20;;;3.17;;
15553;SDS011;7878;44.632;10.942;2023-04-19T11:14:43;13.57;;;3.00;;
15553;SDS011;7878;44.632;10.942;2023-04-19T11:17:20;5.57;;;2.72;;
15553;SDS011;7878;44.632;10.942;2023-04-19T11:19:54;3.42;;;3.13;;
15553;SDS011;7878;44.632;10.942;2023-04-19T11:22:34;4.03;;;2.38;;
15553;SDS011;7878;44.632;10.942;2023-04-19T11:27:34;3.50;;;2.65;;
15553;SDS011;7878;44.632;10.942;2023-04-19T11:30:07;7.13;;;3.67;;
15553;SDS011;7878;44.632;10.942;2023-04-19T11:32:35;3.78;;;3.40;;
15553;SDS011;7878;44.632;10.942;2023-04-19T11:35:04;3.30;;;3.00;;
15553;SDS011;7878;44.632;10.942;2023-04-19T11:37:32;7.13;;;2.95;;
15553;SDS011;7878;44.632;10.942;2023-04-19T11:40:02;3.08;;;2.78;;
15553;SDS011;7878;44.632;10.942;2023-04-19T11:42:29;4.68;;;3.00;;
15553;SDS011;7878;44.632;10.942;2023-04-19T11:44:55;3.55;;;3.22;;
15553;SDS011;7878;44.632;10.942;2023-04-19T11:47:22;3.17;;;2.80;;
15553;SDS011;7878;44.632;10.942;2023-04-19T11:49:48;3.20;;;2.90;;
15553;SDS011;7878;44.632;10.942;2023-04-19T11:52:23;4.15;;;3.42;;
15553;SDS011;7878;44.632;10.942;2023-04-19T11:54:51;4.25;;;3.03;;
15553;SDS011;7878;44.632;10.942;2023-04-19T11:57:29;4.40;;;2.70;;
15553;SDS011;7878;44.632;10.942;2023-04-19T12:00:05;2.78;;;2.58;;
15553;SDS011;7878;44.632;10.942;2023-04-19T12:02:36;6.20;;;2.92;;
15553;SDS011;7878;44.632;10.942;2023-04-19T12:05:11;4.50;;;3.10;;
15553;SDS011;7878;44.632;10.942;2023-04-19T12:10:27;3.00;;;2.55;;
15553;SDS011;7878;44.632;10.942;2023-04-19T12:12:53;4.15;;;2.97;;
15553;SDS011;7878;44.632;10.942;2023-04-19T12:15:19;3.10;;;2.80;;
15553;SDS011;7878;44.632;10.942;2023-04-19T12:18:00;3.20;;;2.90;;
15553;SDS011;7878;44.632;10.942;2023-04-19T12:20:27;5.72;;;3.67;;
15553;SDS011;7878;44.632;10.942;2023-04-19T12:22:57;5.25;;;3.40;;
15553;SDS011;7878;44.632;10.942;2023-04-19T12:25:26;3.75;;;3.00;;
15553;SDS011;7878;44.632;10.942;2023-04-19T12:27:54;7.47;;;3.53;;
15553;SDS011;7878;44.632;10.942;2023-04-19T12:30:20;4.32;;;3.20;;
15553;SDS011;7878;44.632;10.942;2023-04-19T12:32:46;4.55;;;3.33;;
15553;SDS011;7878;44.632;10.942;2023-04-19T12:35:11;5.05;;;4.53;;
15553;SDS011;7878;44.632;10.942;2023-04-19T12:37:37;7.97;;;3.40;;
15553;SDS011;7878;44.632;10.942;2023-04-19T12:40:03;4.78;;;3.78;;
15553;SDS011;7878;44.632;10.942;2023-04-19T12:42:29;5.30;;;4.20;;
15553;SDS011;7878;44.632;10.942;2023-04-19T12:44:54;4.13;;;3.67;;
15553;SDS011;7878;44.632;10.942;2023-04-19T12:47:20;4.88;;;3.80;;
15553;SDS011;7878;44.632;10.942;2023-04-19T12:49:46;4.18;;;3.78;;
15553;SDS011;7878;44.632;10.942;2023-04-19T12:52:12;6.07;;;3.50;;
15553;SDS011;7878;44.632;10.942;2023-04-19T12:54:37;4.10;;;3.70;;
15553;SDS011;7878;44.632;10.942;2023-04-19T12:57:03;5.93;;;3.78;;
15553;SDS011;7878;44.632;10.942;2023-04-19T12:59:29;4.60;;;4.18;;
15553;SDS011;7878;44.632;10.942;2023-04-19T13:01:54;4.90;;;3.40;;
15553;SDS011;7878;44.632;10.942;2023-04-19T13:04:20;4.32;;;3.25;;
15553;SDS011;7878;44.632;10.942;2023-04-19T13:06:46;6.05;;;3.88;;
15553;SDS011;7878;44.632;10.942;2023-04-19T13:09:11;4.22;;;3.75;;
15553;SDS011;7878;44.632;10.942;2023-04-19T13:11:37;4.35;;;3.67;;
15553;SDS011;7878;44.632;10.942;2023-04-19T13:14:02;5.10;;;3.25;;
15553;SDS011;7878;44.632;10.942;2023-04-19T13:16:28;4.78;;;3.40;;
15553;SDS011;7878;44.632;10.942;2023-04-19T13:18:54;5.40;;;3.58;;
15553;SDS011;7878;44.632;10.942;2023-04-19T13:21:19;3.20;;;2.90;;
15553;SDS011;7878;44.632;10.942;2023-04-19T13:23:47;4.65;;;2.90;;
15553;SDS011;7878;44.632;10.942;2023-04-19T13:26:13;4.13;;;3.15;;
15553;SDS011;7878;44.632;10.942;2023-04-19T13:28:40;3.63;;;3.30;;
15553;SDS011;7878;44.632;10.942;2023-04-19T13:31:06;3.83;;;3.28;;
15553;SDS011;7878;44.632;10.942;2023-04-19T13:33:32;5.80;;;3.83;;
15553;SDS011;7878;44.632;10.942;2023-04-19T13:35:58;3.45;;;3.15;;
15553;SDS011;7878;44.632;10.942;2023-04-19T13:38:24;6.40;;;3.65;;
15553;SDS011;7878;44.632;10.942;2023-04-19T13:40:50;5.72;;;3.35;;
15553;SDS011;7878;44.632;10.942;2023-04-19T13:43:16;7.32;;;3.50;;
15553;SDS011;7878;44.632;10.942;2023-04-19T13:45:41;3.60;;;3.20;;
15553;SDS011;7878;44.632;10.942;2023-04-19T13:48:07;8.52;;;4.28;;
15553;SDS011;7878;44.632;10.942;2023-04-19T13:50:32;4.03;;;3.45;;
15553;SDS011;7878;44.632;10.942;2023-04-19T13:52:58;4.03;;;3.40;;
15553;SDS011;7878;44.632;10.942;2023-04-19T13:55:25;4.35;;;3.70;;
15553;SDS011;7878;44.632;10.942;2023-04-19T13:57:50;4.80;;;4.18;;
15553;SDS011;7878;44.632;10.942;2023-04-19T14:00:16;5.18;;;3.53;;
15553;SDS011;7878;44.632;10.942;2023-04-19T14:02:43;6.35;;;3.38;;
15553;SDS011;7878;44.632;10.942;2023-04-19T14:05:09;4.05;;;3.65;;
15553;SDS011;7878;44.632;10.942;2023-04-19T14:07:37;3.65;;;3.28;;
15553;SDS011;7878;44.632;10.942;2023-04-19T14:10:04;8.60;;;4.00;;
15553;SDS011;7878;44.632;10.942;2023-04-19T14:12:31;7.32;;;3.83;;
15553;SDS011;7878;44.632;10.942;2023-04-19T14:14:57;4.43;;;3.50;;
15553;SDS011;7878;44.632;10.942;2023-04-19T14:17:23;3.85;;;3.25;;
15553;SDS011;7878;44.632;10.942;2023-04-19T14:19:49;4.70;;;3.50;;
15553;SDS011;7878;44.632;10.942;2023-04-19T14:22:15;5.50;;;4.60;;
15553;SDS011;7878;44.632;10.942;2023-04-19T14:24:41;4.47;;;3.70;;
15553;SDS011;7878;44.632;10.942;2023-04-19T14:27:07;4.07;;;3.55;;
15553;SDS011;7878;44.632;10.942;2023-04-19T14:29:32;5.53;;;3.03;;
15553;SDS011;7878;44.632;10.942;2023-04-19T14:31:58;4.68;;;2.97;;
15553;SDS011;7878;44.632;10.942;2023-04-19T14:34:25;4.43;;;2.83;;
15553;SDS011;7878;44.632;10.942;2023-04-19T14:36:50;3.22;;;2.92;;
15553;SDS011;7878;44.632;10.942;2023-04-19T14:39:16;4.82;;;3.08;;
15553;SDS011;7878;44.632;10.942;2023-04-19T14:41:42;3.60;;;3.13;;
15553;SDS011;7878;44.632;10.942;2023-04-19T14:44:07;4.88;;;3.00;;
15553;SDS011;7878;44.632;10.942;2023-04-19T14:46:33;7.35;;;3.17;;
15553;SDS011;7878;44.632;10.942;2023-04-19T14:48:59;4.13;;;3.72;;
15553;SDS011;7878;44.632;10.942;2023-04-19T14:51:28;4.00;;;3.13;;
15553;SDS011;7878;44.632;10.942;2023-04-19T14:53:54;3.25;;;2.80;;
15553;SDS011;7878;44.632;10.942;2023-04-19T14:56:20;4.65;;;2.60;;
15553;SDS011;7878;44.632;10.942;2023-04-19T14:58:46;5.60;;;2.67;;
15553;SDS011;7878;44.632;10.942;2023-04-19T15:01:12;3.05;;;2.63;;
15553;SDS011;7878;44.632;10.942;2023-04-19T15:03:38;3.45;;;3.03;;
15553;SDS011;7878;44.632;10.942;2023-04-19T15:06:04;3.85;;;3.28;;